Time;durP1;ratioP1;P1;durP2;ratioP2;P2;SDS_P1;SDS_P2;PMS_P1;PMS_P2;Temp;Humidity;BMP_temperature;BMP_pressure;BME280_temperature;BME280_humidity;BME280_pressure;Samples;Min_cycle;Max_cycle;Signal;HPM_P1;HPM_P2
2022/11/04 00:02:39;;;;;;;;;;;;;;;13.73;67.48;100285.97;5306800;32;35507;-67
2022/11/04 00:05:41;;;;;;;;;;;;;;;13.95;66.41;100277.72;5321873;32;34254;-77
2022/11/04 00:08:46;;;;;;;;;;;;;;;13.94;66.41;100279.50;5314775;32;34772;-77
2022/11/04 00:18:29;;;;;;;;;;;;;;;13.89;66.66;100275.41;5309208;32;34821;-78
2022/11/04 00:34:53;;;;;;;;;;;;;;;13.69;67.86;100239.53;5314451;32;35343;-78
2022/11/04 00:37:55;;;;;;;;;;;;;;;13.64;67.85;100229.19;5319926;32;35600;-68
2022/11/04 00:40:57;;;;;;;;;;;;;;;13.55;68.65;100232.34;5308998;32;34673;-78
2022/11/04 00:44:00;;;;;;;;;;;;;;;13.64;67.50;100233.63;5329485;32;34180;-78
2022/11/04 00:47:02;;;;;;;;;;;;;;;13.99;66.72;100219.34;5298108;32;34525;-78
2022/11/04 00:50:04;;;;;;;;;;;;;;;14.03;66.64;100214.72;5328680;32;35828;-78
2022/11/04 00:53:05;;;;;;;;;;;;;;;14.15;65.98;100205.25;5310496;32;45254;-78
2022/11/04 00:56:08;;;;;;;;;;;;;;;13.28;69.38;100203.84;5309353;32;35453;-68
2022/11/04 00:59:10;;;;;;;;;;;;;;;13.42;69.78;100202.25;5330468;32;34930;-68
2022/11/04 01:02:15;;;;;;;;;;;;;;;13.07;71.74;100194.38;5308056;32;35716;-78
2022/11/04 01:05:17;;;;;;;;;;;;;;;13.27;70.13;100188.94;5330667;32;35098;-77
2022/11/04 01:08:19;;;;;;;;;;;;;;;13.31;70.83;100187.00;5314920;32;35305;-67
2022/11/04 01:11:21;;;;;;;;;;;;;;;13.63;68.91;100198.44;5319395;32;33901;-76
2022/11/04 01:14:22;;;;;;;;;;;;;;;13.99;67.07;100208.78;5319350;32;35117;-67
2022/11/04 01:17:24;;;;;;;;;;;;;;;13.77;68.19;100195.91;5286651;32;34763;-67
2022/11/04 01:20:26;;;;;;;;;;;;;;;13.90;68.54;100208.44;5324838;32;34738;-77
2022/11/04 01:23:28;;;;;;;;;;;;;;;13.61;69.86;100187.13;5290949;32;34514;-67
2022/11/04 01:26:30;;;;;;;;;;;;;;;14.46;66.34;100184.09;5321289;32;35316;-76
2022/11/04 01:29:32;;;;;;;;;;;;;;;13.75;68.27;100181.94;5299469;32;36578;-76
2022/11/04 01:32:34;;;;;;;;;;;;;;;13.32;70.21;100191.31;5317223;32;35625;-67
2022/11/04 01:35:36;;;;;;;;;;;;;;;13.60;70.58;100184.56;5296142;32;45085;-67
2022/11/04 01:38:37;;;;;;;;;;;;;;;13.93;68.69;100174.78;5303010;32;35410;-68
2022/11/04 01:41:39;;;;;;;;;;;;;;;13.31;70.34;100167.66;5328145;32;35574;-78
2022/11/04 01:44:41;;;;;;;;;;;;;;;13.89;69.73;100167.94;5310356;32;35365;-77
2022/11/04 01:47:48;;;;;;;;;;;;;;;14.27;67.06;100162.28;5321148;32;34721;-68
2022/11/04 01:50:50;;;;;;;;;;;;;;;14.41;66.82;100156.19;5302952;32;34862;-68
2022/11/04 01:53:51;;;;;;;;;;;;;;;14.34;67.09;100137.19;5297521;32;34764;-67
2022/11/04 01:56:53;;;;;;;;;;;;;;;13.23;70.79;100131.13;5305328;32;34950;-78
2022/11/04 01:59:56;;;;;;;;;;;;;;;13.82;70.16;100126.97;5309199;32;35187;-76
2022/11/04 02:02:59;;;;;;;;;;;;;;;14.11;68.54;100116.53;5325984;32;34563;-68
2022/11/04 02:06:01;;;;;;;;;;;;;;;13.99;69.01;100110.16;5289150;32;36344;-68
2022/11/04 02:09:03;;;;;;;;;;;;;;;13.98;68.72;100098.75;5328339;32;34833;-67
2022/11/04 02:15:28;;;;;;;;;;;;;;;13.95;69.54;100108.63;5297395;32;35155;-67
2022/11/04 02:18:53;;;;;;;;;;;;;;;14.04;69.14;100101.03;5316939;32;34908;-67
2022/11/04 02:22:13;;;;;;;;;;;;;;;13.95;69.59;100098.06;5299912;32;35001;-67
2022/11/04 02:25:30;;;;;;;;;;;;;;;13.85;69.77;100105.69;5326603;32;36575;-73
2022/11/04 02:28:37;;;;;;;;;;;;;;;13.93;69.62;100098.16;5316003;32;35384;-67
2022/11/04 02:31:42;;;;;;;;;;;;;;;14.02;68.96;100100.25;5296789;32;47025;-78
2022/11/04 02:35:03;;;;;;;;;;;;;;;13.86;69.92;100090.69;5315676;32;34815;-78
2022/11/04 02:38:17;;;;;;;;;;;;;;;14.04;68.76;100092.25;5309059;32;43795;-68
2022/11/04 02:41:28;;;;;;;;;;;;;;;13.79;69.84;100080.47;5309459;32;34748;-78
2022/11/04 02:44:59;;;;;;;;;;;;;;;13.75;70.67;100080.72;5311970;32;34540;-67
2022/11/04 02:48:02;;;;;;;;;;;;;;;14.11;68.77;100067.19;5270785;32;34910;-78
2022/11/04 02:51:06;;;;;;;;;;;;;;;14.04;68.76;100061.41;5308087;32;34933;-77
2022/11/04 02:54:10;;;;;;;;;;;;;;;13.25;73.10;100058.00;5304082;32;45037;-78
2022/11/04 02:57:12;;;;;;;;;;;;;;;13.69;71.00;100052.00;5317695;32;35711;-78
2022/11/04 03:00:15;;;;;;;;;;;;;;;13.58;71.56;100047.31;5303036;32;35527;-67
2022/11/04 03:03:18;;;;;;;;;;;;;;;13.05;72.57;100052.94;5309582;32;35402;-68
2022/11/04 03:06:21;;;;;;;;;;;;;;;12.70;74.29;100063.59;5306572;32;34360;-67
2022/11/04 03:09:23;;;;;;;;;;;;;;;13.66;71.59;100068.91;5307615;32;34870;-67
2022/11/04 03:12:25;;;;;;;;;;;;;;;14.04;69.30;100066.69;5307588;32;35676;-67
2022/11/04 03:15:28;;;;;;;;;;;;;;;13.93;69.52;100062.97;5301475;32;35130;-67
2022/11/04 03:18:36;;;;;;;;;;;;;;;13.89;69.78;100056.16;5302923;32;35320;-67
2022/11/04 03:21:39;;;;;;;;;;;;;;;13.72;71.12;100055.34;5312314;32;47014;-77
2022/11/04 03:24:41;;;;;;;;;;;;;;;14.02;69.48;100047.41;5293237;32;35139;-68
2022/11/04 03:28:06;;;;;;;;;;;;;;;14.10;68.85;100033.75;5310578;32;35462;-67
2022/11/04 03:31:10;;;;;;;;;;;;;;;13.88;69.74;100025.38;5279464;32;47459;-78
2022/11/04 03:34:12;;;;;;;;;;;;;;;13.20;72.30;100009.84;5305531;32;34940;-67
2022/11/04 03:37:14;;;;;;;;;;;;;;;13.73;70.28;100012.12;5292102;32;34659;-66
2022/11/04 03:40:16;;;;;;;;;;;;;;;13.45;71.36;100017.28;5313557;32;34948;-76
2022/11/04 03:43:20;;;;;;;;;;;;;;;13.67;69.82;100014.28;5309882;32;34786;-67
2022/11/04 03:46:21;;;;;;;;;;;;;;;13.36;71.62;100007.25;5301758;32;35271;-68
2022/11/04 03:49:23;;;;;;;;;;;;;;;12.59;74.77;100007.94;5324379;32;34941;-78
2022/11/04 03:52:25;;;;;;;;;;;;;;;12.50;74.95;100003.19;5297982;32;35486;-68
2022/11/04 03:55:36;;;;;;;;;;;;;;;12.90;72.92;100001.88;5325359;32;34901;-67
2022/11/04 03:58:47;;;;;;;;;;;;;;;13.40;71.03;100001.72;5295977;32;44879;-68
2022/11/04 04:01:50;;;;;;;;;;;;;;;12.51;74.58;99983.78;5290904;32;34878;-77
2022/11/04 04:04:52;;;;;;;;;;;;;;;12.95;73.34;99984.84;5308568;32;35106;-67
2022/11/04 04:08:13;;;;;;;;;;;;;;;13.38;70.89;99992.19;5297530;32;34848;-68
2022/11/04 04:11:28;;;;;;;;;;;;;;;13.51;70.38;99978.19;5312643;32;46842;-69
2022/11/04 04:14:40;;;;;;;;;;;;;;;13.44;70.15;99968.91;5312165;32;35510;-68
2022/11/04 04:17:43;;;;;;;;;;;;;;;13.69;68.86;99954.28;5279959;32;45059;-78
2022/11/04 04:20:46;;;;;;;;;;;;;;;13.46;70.25;99964.41;5308630;32;35122;-68
2022/11/04 04:30:29;;;;;;;;;;;;;;;12.68;73.86;99954.69;5308421;32;34977;-77
2022/11/04 04:33:31;;;;;;;;;;;;;;;13.41;70.84;99949.78;5301414;32;35205;-67
2022/11/04 04:36:33;;;;;;;;;;;;;;;13.51;70.16;99959.69;5322809;32;34905;-67
2022/11/04 04:46:28;;;;;;;;;;;;;;;13.42;70.19;99944.41;5313396;32;34312;-68
2022/11/04 04:49:33;;;;;;;;;;;;;;;13.01;71.30;99952.88;5294802;32;34294;-76
2022/11/04 04:52:38;;;;;;;;;;;;;;;13.74;68.80;99931.13;5317389;32;45009;-78
2022/11/04 04:55:40;;;;;;;;;;;;;;;13.13;71.68;99935.47;5295549;32;35075;-68
2022/11/04 04:58:42;;;;;;;;;;;;;;;13.25;70.94;99934.81;5324377;32;34569;-68
2022/11/04 05:01:44;;;;;;;;;;;;;;;13.43;69.50;99932.91;5296593;32;33738;-68
2022/11/04 05:04:46;;;;;;;;;;;;;;;13.27;69.38;99926.81;5319484;32;34944;-77
2022/11/04 05:07:48;;;;;;;;;;;;;;;13.16;70.17;99929.19;5319734;32;34610;-68
2022/11/04 05:10:49;;;;;;;;;;;;;;;13.28;68.83;99924.09;5298880;32;34965;-77
2022/11/04 05:13:51;;;;;;;;;;;;;;;13.18;69.55;99937.84;5324074;32;35439;-78
2022/11/04 05:16:53;;;;;;;;;;;;;;;13.07;69.85;99932.31;5286963;32;34302;-77
2022/11/04 05:19:55;;;;;;;;;;;;;;;13.15;69.21;99938.03;5327671;32;34277;-77
2022/11/04 05:22:57;;;;;;;;;;;;;;;12.72;71.30;99951.81;5302762;32;35601;-76
2022/11/04 05:25:58;;;;;;;;;;;;;;;12.39;71.82;99954.50;5299913;32;34392;-78
2022/11/04 05:29:00;;;;;;;;;;;;;;;12.98;69.99;99955.66;5315122;32;34927;-67
2022/11/04 05:32:02;;;;;;;;;;;;;;;12.98;70.23;99953.03;5295397;32;34709;-68
2022/11/04 05:35:04;;;;;;;;;;;;;;;12.20;74.38;99948.50;5312379;32;35193;-68
2022/11/04 05:38:06;;;;;;;;;;;;;;;12.98;70.17;99950.38;5299823;32;45094;-79
2022/11/04 05:41:09;;;;;;;;;;;;;;;13.03;70.06;99950.13;5326541;32;35038;-67
2022/11/04 05:44:11;;;;;;;;;;;;;;;11.59;75.34;99949.84;5302496;32;35263;-76
2022/11/04 05:47:13;;;;;;;;;;;;;;;12.36;73.33;99940.63;5304112;32;34813;-78
2022/11/04 05:50:15;;;;;;;;;;;;;;;12.46;73.34;99934.78;5306742;32;35562;-67
2022/11/04 05:53:16;;;;;;;;;;;;;;;12.83;71.42;99931.94;5303296;32;35715;-68
2022/11/04 05:56:18;;;;;;;;;;;;;;;12.88;70.76;99920.19;5318934;32;34641;-68
2022/11/04 05:59:20;;;;;;;;;;;;;;;13.22;69.33;99936.78;5279658;32;35317;-78
2022/11/04 06:02:22;;;;;;;;;;;;;;;13.43;68.06;99935.53;5310458;32;34393;-78
2022/11/04 06:05:24;;;;;;;;;;;;;;;13.15;68.38;99943.31;5282329;32;34947;-68
2022/11/04 06:08:26;;;;;;;;;;;;;;;13.18;69.30;99949.25;5316987;32;35136;-79
2022/11/04 06:11:29;;;;;;;;;;;;;;;13.21;68.87;99935.09;5314626;32;35210;-67
2022/11/04 06:14:30;;;;;;;;;;;;;;;13.18;69.19;99951.91;5308293;32;35338;-67
2022/11/04 06:17:32;;;;;;;;;;;;;;;12.46;72.99;99961.16;5297907;32;34870;-67
2022/11/04 06:20:34;;;;;;;;;;;;;;;13.23;69.09;99962.22;5302837;32;35506;-69
2022/11/04 06:23:36;;;;;;;;;;;;;;;13.01;68.72;99955.50;5317473;32;46227;-77
2022/11/04 06:26:38;;;;;;;;;;;;;;;12.64;70.57;99959.31;5304282;32;35464;-77
2022/11/04 06:29:40;;;;;;;;;;;;;;;12.77;69.95;99954.22;5312475;32;35620;-67
2022/11/04 06:32:42;;;;;;;;;;;;;;;12.80;69.67;99954.03;5311762;32;35181;-77
2022/11/04 06:35:44;;;;;;;;;;;;;;;12.40;71.47;99969.38;5290029;32;34383;-76
2022/11/04 06:38:46;;;;;;;;;;;;;;;11.60;75.24;99977.03;5326391;32;35500;-76
2022/11/04 06:41:47;;;;;;;;;;;;;;;12.11;72.80;99970.09;5310358;32;35399;-77
2022/11/04 06:44:52;;;;;;;;;;;;;;;12.41;71.33;99968.44;5326158;32;35984;-68
2022/11/04 06:47:59;;;;;;;;;;;;;;;12.34;71.07;99959.16;5315924;32;34336;-68
2022/11/04 06:51:01;;;;;;;;;;;;;;;11.85;74.03;99966.12;5314094;32;34662;-77
2022/11/04 06:54:03;;;;;;;;;;;;;;;11.79;74.17;99964.66;5335294;32;34204;-68
2022/11/04 06:57:05;;;;;;;;;;;;;;;12.20;72.90;99962.53;5312735;32;35364;-77
2022/11/04 07:00:07;;;;;;;;;;;;;;;12.44;71.36;99960.38;5327022;32;47294;-78
2022/11/04 07:03:09;;;;;;;;;;;;;;;12.52;70.75;99965.25;5307971;32;34800;-78
2022/11/04 07:06:12;;;;;;;;;;;;;;;12.51;69.71;99957.44;5324201;32;34719;-79
2022/11/04 07:09:14;;;;;;;;;;;;;;;11.54;74.58;99964.19;5314206;32;34980;-78
2022/11/04 07:12:16;;;;;;;;;;;;;;;12.12;71.62;99963.87;5315523;32;36384;-69
2022/11/04 07:15:17;;;;;;;;;;;;;;;12.53;70.12;99956.41;5318638;32;34698;-78
2022/11/04 07:18:26;;;;;;;;;;;;;;;12.32;70.10;99953.13;5291475;32;34416;-67
2022/11/04 07:21:28;;;;;;;;;;;;;;;11.58;73.62;99966.56;5311318;32;35533;-67
2022/11/04 07:24:30;;;;;;;;;;;;;;;12.31;71.69;99956.72;5313869;32;34151;-77
2022/11/04 07:27:32;;;;;;;;;;;;;;;12.50;69.90;99953.09;5318334;32;34657;-77
2022/11/04 07:30:34;;;;;;;;;;;;;;;12.34;70.17;99961.81;5309889;32;35589;-67
2022/11/04 07:33:36;;;;;;;;;;;;;;;11.83;72.60;99968.84;5316344;32;47773;-68
2022/11/04 07:36:38;;;;;;;;;;;;;;;12.04;72.60;99964.25;5330795;32;35341;-67
2022/11/04 07:39:40;;;;;;;;;;;;;;;12.06;71.37;99951.88;5302076;32;35089;-67
2022/11/04 07:42:41;;;;;;;;;;;;;;;11.90;72.60;99949.16;5331045;32;35375;-78
2022/11/04 07:45:43;;;;;;;;;;;;;;;12.79;68.66;99946.22;5302780;32;35410;-68
2022/11/04 07:48:45;;;;;;;;;;;;;;;12.42;69.59;99953.47;5332632;32;34368;-67
2022/11/04 07:51:47;;;;;;;;;;;;;;;12.66;68.75;99946.03;5317939;32;35227;-79
2022/11/04 07:54:49;;;;;;;;;;;;;;;12.24;70.80;99946.56;5308083;32;35673;-76
2022/11/04 07:57:53;;;;;;;;;;;;;;;12.69;68.67;99946.75;5329067;32;35463;-78
2022/11/04 08:01:01;;;;;;;;;;;;;;;12.89;67.29;99932.44;5306047;32;35720;-66
2022/11/04 08:04:04;;;;;;;;;;;;;;;11.84;71.04;99938.09;5324230;32;34662;-67
2022/11/04 08:07:08;;;;;;;;;;;;;;;12.50;69.35;99924.09;5319252;32;44535;-68
2022/11/04 08:10:10;;;;;;;;;;;;;;;12.72;68.17;99914.91;5324762;32;34945;-76
2022/11/04 08:13:12;;;;;;;;;;;;;;;12.79;67.10;99920.69;5311727;32;34788;-77
2022/11/04 08:16:15;;;;;;;;;;;;;;;12.77;68.15;99919.09;5313418;32;35068;-78
2022/11/04 08:19:17;;;;;;;;;;;;;;;12.61;68.38;99914.66;5313688;32;35708;-78
2022/11/04 08:22:19;;;;;;;;;;;;;;;11.93;70.27;99906.88;5303439;32;33805;-77
2022/11/04 08:25:22;;;;;;;;;;;;;;;11.81;72.78;99906.66;5316818;32;35380;-68
2022/11/04 08:28:24;;;;;;;;;;;;;;;12.96;67.30;99912.69;5311061;32;34446;-77
2022/11/04 08:31:27;;;;;;;;;;;;;;;12.93;67.66;99912.00;5321184;32;34490;-67
2022/11/04 08:34:29;;;;;;;;;;;;;;;12.19;69.38;99908.13;5318967;32;35624;-77
2022/11/04 08:37:31;;;;;;;;;;;;;;;11.55;73.40;99918.50;5310148;32;34185;-77
2022/11/04 08:40:34;;;;;;;;;;;;;;;12.61;69.34;99905.88;5321746;32;35280;-79
2022/11/04 08:43:36;;;;;;;;;;;;;;;12.74;68.82;99912.19;5317707;32;45000;-68
2022/11/04 08:46:38;;;;;;;;;;;;;;;12.48;69.35;99905.72;5338119;32;34643;-77
2022/11/04 08:49:40;;;;;;;;;;;;;;;12.15;71.07;99897.84;5324677;32;35153;-69
2022/11/04 08:52:42;;;;;;;;;;;;;;;12.53;69.33;99894.91;5320560;32;34875;-67
2022/11/04 08:55:44;;;;;;;;;;;;;;;11.69;72.55;99894.94;5326365;32;35501;-78
2022/11/04 08:58:47;;;;;;;;;;;;;;;12.15;71.72;99892.56;5317161;32;36080;-78
2022/11/04 09:01:48;;;;;;;;;;;;;;;12.70;69.34;99895.69;5325863;32;35097;-78
2022/11/04 09:04:50;;;;;;;;;;;;;;;12.30;69.04;99891.78;5306650;32;34936;-78
2022/11/04 09:07:52;;;;;;;;;;;;;;;11.81;71.65;99886.44;5328383;32;34816;-68
2022/11/04 09:10:54;;;;;;;;;;;;;;;12.20;69.75;99885.28;5309225;32;35380;-68
2022/11/04 09:14:00;;;;;;;;;;;;;;;12.63;67.92;99878.53;5290478;32;940968;-78
2022/11/04 09:17:02;;;;;;;;;;;;;;;12.81;67.95;99871.34;5307830;32;37303;-69
2022/11/04 09:20:04;;;;;;;;;;;;;;;12.17;71.13;99874.88;5306708;32;34916;-67
2022/11/04 09:23:06;;;;;;;;;;;;;;;13.01;66.41;99868.44;5317638;32;44910;-67
2022/11/04 09:26:10;;;;;;;;;;;;;;;12.93;65.81;99870.66;5314817;32;36577;-78
2022/11/04 09:29:12;;;;;;;;;;;;;;;12.91;66.32;99867.25;5330455;32;34996;-77
2022/11/04 09:32:14;;;;;;;;;;;;;;;12.41;69.09;99867.44;5320546;32;34385;-67
2022/11/04 09:35:16;;;;;;;;;;;;;;;12.22;70.87;99864.13;5314858;32;35702;-68
2022/11/04 09:38:18;;;;;;;;;;;;;;;12.68;68.13;99857.16;5313556;32;34956;-67
2022/11/04 09:41:20;;;;;;;;;;;;;;;12.04;69.94;99860.66;5306044;33;34310;-77
2022/11/04 09:44:42;;;;;;;;;;;;;;;12.52;68.42;99861.59;5333931;32;34249;-78
2022/11/04 09:48:05;;;;;;;;;;;;;;;12.78;68.08;99857.50;5322843;32;36286;-68
2022/11/04 09:51:07;;;;;;;;;;;;;;;11.96;70.92;99847.06;5307188;32;44447;-79
2022/11/04 09:54:32;;;;;;;;;;;;;;;11.81;72.19;99857.50;5312314;32;35574;-68
2022/11/04 09:57:34;;;;;;;;;;;;;;;11.87;72.80;99846.63;5311536;32;34418;-68
2022/11/04 10:00:36;;;;;;;;;;;;;;;11.27;76.49;99837.44;5324504;32;46244;-78
2022/11/04 10:03:44;;;;;;;;;;;;;;;11.25;77.18;99836.69;5309736;32;34036;-68
2022/11/04 10:06:48;;;;;;;;;;;;;;;12.26;73.49;99832.25;5317400;32;34392;-79
2022/11/04 10:09:50;;;;;;;;;;;;;;;12.01;74.82;99827.47;5326267;32;35027;-68
2022/11/04 10:13:00;;;;;;;;;;;;;;;12.18;73.92;99816.03;5317268;32;34775;-69
2022/11/04 10:16:02;;;;;;;;;;;;;;;12.28;73.57;99819.84;5310196;32;35110;-69
2022/11/04 10:19:04;;;;;;;;;;;;;;;11.61;77.23;99800.59;5309868;32;35576;-77
2022/11/04 10:22:11;;;;;;;;;;;;;;;12.54;73.42;99802.56;5320272;32;45911;-67
2022/11/04 10:25:14;;;;;;;;;;;;;;;12.29;74.36;99800.44;5308321;32;34355;-79
2022/11/04 10:28:17;;;;;;;;;;;;;;;13.13;70.80;99793.00;5313439;32;35535;-67
2022/11/04 10:31:19;;;;;;;;;;;;;;;13.29;69.12;99795.63;5320481;32;34818;-77
2022/11/04 10:34:23;;;;;;;;;;;;;;;12.60;71.86;99801.38;5316141;32;35845;-78
2022/11/04 10:37:25;;;;;;;;;;;;;;;12.54;74.20;99799.94;5316917;32;35445;-68
2022/11/04 10:40:28;;;;;;;;;;;;;;;12.02;76.19;99786.16;5304253;32;35034;-68
2022/11/04 10:43:32;;;;;;;;;;;;;;;11.96;76.68;99794.41;5311165;32;35321;-77
2022/11/04 10:46:52;;;;;;;;;;;;;;;12.32;74.47;99783.62;5318807;32;34962;-68
2022/11/04 10:50:03;;;;;;;;;;;;;;;12.78;74.10;99786.31;5321850;32;34983;-68
2022/11/04 10:53:31;;;;;;;;;;;;;;;13.28;72.00;99786.00;5332812;32;35461;-68
2022/11/04 10:56:33;;;;;;;;;;;;;;;13.47;69.67;99780.47;5297209;32;35555;-68
2022/11/04 10:59:35;;;;;;;;;;;;;;;13.03;70.61;99770.75;5324984;32;47132;-68
2022/11/04 11:02:47;;;;;;;;;;;;;;;13.63;68.99;99754.81;5318511;32;35565;-78
2022/11/04 11:05:49;;;;;;;;;;;;;;;12.96;72.83;99757.06;5310733;32;34485;-77
2022/11/04 11:08:54;;;;;;;;;;;;;;;13.12;71.40;99745.59;5312460;32;35114;-69
2022/11/04 11:12:00;;;;;;;;;;;;;;;13.28;71.58;99741.16;5313165;32;34357;-76
2022/11/04 11:15:20;;;;;;;;;;;;;;;12.84;73.16;99741.97;5335960;32;35722;-76
2022/11/04 11:18:27;;;;;;;;;;;;;;;13.40;69.64;99735.13;5304627;32;35130;-69
2022/11/04 11:21:29;;;;;;;;;;;;;;;13.11;72.86;99742.13;5302184;32;34882;-78
2022/11/04 11:24:32;;;;;;;;;;;;;;;13.22;72.87;99731.81;5315667;32;35395;-76
2022/11/04 11:27:35;;;;;;;;;;;;;;;12.94;72.98;99732.56;5317448;32;35402;-67
2022/11/04 11:30:40;;;;;;;;;;;;;;;14.09;68.82;99736.09;5329373;32;45226;-77
2022/11/04 11:33:47;;;;;;;;;;;;;;;12.99;71.44;99737.56;5323223;32;34744;-78
2022/11/04 11:36:49;;;;;;;;;;;;;;;13.57;70.38;99733.22;5330916;32;35428;-78
2022/11/04 11:39:50;;;;;;;;;;;;;;;12.50;74.13;99735.16;5304645;32;34612;-70
2022/11/04 11:42:52;;;;;;;;;;;;;;;12.13;76.40;99731.12;5320983;32;34981;-69
2022/11/04 11:45:56;;;;;;;;;;;;;;;13.04;72.42;99722.31;5306751;32;34877;-77
2022/11/04 11:49:01;;;;;;;;;;;;;;;12.95;72.58;99723.72;5317651;32;35523;-77
2022/11/04 11:52:23;;;;;;;;;;;;;;;12.92;73.21;99721.25;5336410;32;35343;-76
2022/11/04 11:55:26;;;;;;;;;;;;;;;12.80;73.57;99708.78;5303478;32;35460;-76
2022/11/04 11:58:36;;;;;;;;;;;;;;;12.73;73.92;99710.09;5316222;32;34637;-68
2022/11/04 12:01:58;;;;;;;;;;;;;;;13.68;69.44;99713.13;5312706;32;35315;-68
2022/11/04 12:05:00;;;;;;;;;;;;;;;14.07;67.92;99687.78;5313346;32;34255;-68
2022/11/04 12:08:31;;;;;;;;;;;;;;;13.05;72.09;99680.97;5322489;32;35133;-74
2022/11/04 12:12:12;;;;;;;;;;;;;;;13.54;70.13;99686.75;5325082;32;35442;-78
2022/11/04 12:15:17;;;;;;;;;;;;;;;13.28;71.91;99691.84;5311882;32;46801;-68
2022/11/04 12:18:25;;;;;;;;;;;;;;;13.41;71.60;99681.37;5323257;32;34910;-77
2022/11/04 12:21:47;;;;;;;;;;;;;;;12.93;74.40;99664.06;5317069;32;35069;-68
2022/11/04 12:24:52;;;;;;;;;;;;;;;13.54;71.88;99660.34;5308217;32;34649;-76
2022/11/04 12:28:07;;;;;;;;;;;;;;;13.35;72.31;99662.44;5327855;32;34266;-78
2022/11/04 12:31:26;;;;;;;;;;;;;;;13.36;73.21;99664.13;5317210;32;45935;-78
2022/11/04 12:34:28;;;;;;;;;;;;;;;13.29;72.99;99647.84;5309403;32;36392;-77
2022/11/04 12:37:38;;;;;;;;;;;;;;;12.81;74.94;99636.66;5310466;32;34805;-68
2022/11/04 12:40:41;;;;;;;;;;;;;;;13.15;74.65;99626.72;5322641;32;44720;-69
2022/11/04 12:43:45;;;;;;;;;;;;;;;12.97;73.16;99621.59;5325887;32;35439;-69
2022/11/04 12:47:06;;;;;;;;;;;;;;;13.81;71.44;99607.56;5313331;32;35307;-69
2022/11/04 12:50:10;;;;;;;;;;;;;;;14.44;68.27;99609.56;5320942;32;44809;-67
2022/11/04 12:53:18;;;;;;;;;;;;;;;14.97;65.06;99601.59;5308765;32;35169;-77
2022/11/04 12:56:26;;;;;;;;;;;;;;;14.38;66.83;99606.50;5313532;32;34981;-69
2022/11/04 12:59:37;;;;;;;;;;;;;;;13.96;69.01;99605.72;5306927;32;36954;-68
2022/11/04 13:02:48;;;;;;;;;;;;;;;13.01;72.50;99609.94;5306456;32;44979;-78
2022/11/04 13:05:51;;;;;;;;;;;;;;;13.67;70.57;99600.53;5326480;32;35177;-78
2022/11/04 13:09:19;;;;;;;;;;;;;;;13.42;71.61;99598.63;5299137;32;34317;-78
2022/11/04 13:12:23;;;;;;;;;;;;;;;13.92;70.33;99591.88;5290222;32;34869;-77
2022/11/04 13:15:27;;;;;;;;;;;;;;;13.71;69.99;99582.69;5296564;32;34601;-77
2022/11/04 13:18:31;;;;;;;;;;;;;;;14.89;66.40;99594.19;5301852;32;34888;-76
2022/11/04 13:21:34;;;;;;;;;;;;;;;14.49;67.08;99585.47;5306803;32;35300;-77
2022/11/04 13:24:37;;;;;;;;;;;;;;;14.43;66.77;99585.88;5312399;32;46660;-77
2022/11/04 13:27:40;;;;;;;;;;;;;;;14.34;66.54;99587.31;5309228;32;35350;-78
2022/11/04 13:30:49;;;;;;;;;;;;;;;13.15;72.88;99587.13;5299329;32;35314;-77
2022/11/04 13:34:02;;;;;;;;;;;;;;;14.27;68.17;99572.84;5295958;32;35031;-68
2022/11/04 13:37:04;;;;;;;;;;;;;;;14.66;66.24;99576.41;5309706;32;37699;-68
2022/11/04 13:40:13;;;;;;;;;;;;;;;14.34;67.31;99574.09;5312326;32;47060;-69
2022/11/04 13:43:38;;;;;;;;;;;;;;;14.73;65.65;99572.38;5321351;32;35490;-78
2022/11/04 13:46:40;;;;;;;;;;;;;;;14.39;68.36;99568.53;5297202;32;44565;-78
2022/11/04 13:49:45;;;;;;;;;;;;;;;13.99;69.98;99572.03;5301293;32;34698;-78
2022/11/04 13:52:47;;;;;;;;;;;;;;;14.34;67.74;99566.19;5317437;32;35497;-78
2022/11/04 13:55:53;;;;;;;;;;;;;;;13.99;70.08;99566.75;5299090;32;35365;-67
2022/11/04 13:59:05;;;;;;;;;;;;;;;15.10;65.55;99565.38;5313429;32;35359;-79
2022/11/04 14:02:10;;;;;;;;;;;;;;;14.62;66.76;99573.97;5294573;32;44783;-67
2022/11/04 14:05:28;;;;;;;;;;;;;;;15.28;64.83;99569.34;5333749;32;35667;-68
2022/11/04 14:08:30;;;;;;;;;;;;;;;15.51;63.70;99545.66;5319985;32;34220;-77
2022/11/04 14:11:32;;;;;;;;;;;;;;;14.21;68.41;99560.03;5302681;32;34910;-76
2022/11/04 14:14:40;;;;;;;;;;;;;;;13.99;69.04;99558.81;5315123;32;45425;-77
2022/11/04 14:17:42;;;;;;;;;;;;;;;14.96;66.09;99566.34;5287066;32;35029;-68
2022/11/04 14:21:00;;;;;;;;;;;;;;;14.11;68.96;99554.53;5327607;32;34983;-77
2022/11/04 14:24:02;;;;;;;;;;;;;;;15.17;65.27;99561.31;5316727;32;35017;-68
2022/11/04 14:27:04;;;;;;;;;;;;;;;15.20;64.54;99554.97;5298676;32;34970;-77
2022/11/04 14:30:09;;;;;;;;;;;;;;;13.89;69.67;99549.81;5321172;32;45126;-78
2022/11/04 14:33:17;;;;;;;;;;;;;;;14.09;69.11;99545.84;5291053;32;37338;-68
2022/11/04 14:36:19;;;;;;;;;;;;;;;14.55;68.64;99532.16;5315047;32;35066;-77
2022/11/04 14:39:25;;;;;;;;;;;;;;;14.84;66.87;99536.28;5310119;32;35356;-78
2022/11/04 14:42:44;;;;;;;;;;;;;;;14.67;66.80;99533.12;5303189;32;35117;-78
2022/11/04 14:45:46;;;;;;;;;;;;;;;14.80;66.61;99531.31;5322457;32;34513;-78
2022/11/04 14:48:51;;;;;;;;;;;;;;;15.08;66.13;99531.06;5288505;32;34832;-69
2022/11/04 14:51:52;;;;;;;;;;;;;;;14.57;67.83;99528.50;5306601;32;34556;-67
2022/11/04 14:54:57;;;;;;;;;;;;;;;15.20;64.93;99521.41;5302873;32;35581;-77
2022/11/04 14:58:19;;;;;;;;;;;;;;;15.28;64.94;99511.13;5311988;32;36914;-76
2022/11/04 15:01:21;;;;;;;;;;;;;;;15.34;64.81;99510.66;5323186;32;34736;-68
2022/11/04 15:04:25;;;;;;;;;;;;;;;15.16;64.83;99507.53;5313642;32;34977;-67
2022/11/04 15:07:32;;;;;;;;;;;;;;;15.40;64.09;99506.75;5330540;32;35405;-77
2022/11/04 15:10:34;;;;;;;;;;;;;;;15.59;63.19;99515.03;5305730;32;34192;-69
2022/11/04 15:13:37;;;;;;;;;;;;;;;14.83;65.22;99520.53;5326494;32;44856;-77
2022/11/04 15:16:39;;;;;;;;;;;;;;;15.04;65.82;99515.53;5295807;32;34888;-68
2022/11/04 15:19:41;;;;;;;;;;;;;;;14.41;68.13;99519.88;5301775;32;34995;-67
2022/11/04 15:22:43;;;;;;;;;;;;;;;14.22;69.79;99514.16;5321345;32;35030;-77
2022/11/04 15:25:46;;;;;;;;;;;;;;;15.22;66.22;99502.78;5299757;32;35202;-68
2022/11/04 15:28:48;;;;;;;;;;;;;;;15.17;65.85;99508.38;5322233;32;36358;-68
2022/11/04 15:31:54;;;;;;;;;;;;;;;14.18;70.31;99523.25;5313778;32;35594;-76
2022/11/04 15:34:56;;;;;;;;;;;;;;;13.97;71.80;99504.38;5332358;32;35483;-67
2022/11/04 15:37:59;;;;;;;;;;;;;;;14.01;71.87;99508.53;5309801;32;35793;-76
2022/11/04 15:42:35;;;;;;;;;;;;;;;13.83;72.92;99507.94;5302991;32;34977;-78
2022/11/04 15:44:26;;;;;;;;;;;;;;;13.64;73.72;99502.19;5319824;32;35594;-77
2022/11/04 15:47:28;;;;;;;;;;;;;;;13.74;74.50;99504.13;5314494;32;34681;-77
2022/11/04 15:50:30;;;;;;;;;;;;;;;13.09;76.73;99500.44;5326647;32;35281;-68
2022/11/04 15:53:32;;;;;;;;;;;;;;;13.76;75.71;99501.38;5295211;32;34407;-68
2022/11/04 15:56:38;;;;;;;;;;;;;;;13.69;74.13;99500.94;5320830;32;34305;-68
2022/11/04 15:59:44;;;;;;;;;;;;;;;13.55;75.42;99504.50;5320468;32;45350;-68
2022/11/04 16:02:46;;;;;;;;;;;;;;;13.00;77.45;99515.91;5302164;32;34729;-68
2022/11/04 16:06:02;;;;;;;;;;;;;;;13.67;75.91;99517.84;5327485;32;34451;-68
2022/11/04 16:09:24;;;;;;;;;;;;;;;12.98;77.49;99524.84;5307987;32;35452;-77
2022/11/04 16:12:29;;;;;;;;;;;;;;;13.71;76.18;99520.16;5319255;32;35743;-78
2022/11/04 16:15:35;;;;;;;;;;;;;;;13.15;77.23;99516.75;5311210;32;33320;-77
2022/11/04 16:19:03;;;;;;;;;;;;;;;14.01;73.70;99522.56;5294833;32;44831;-77
2022/11/04 16:22:07;;;;;;;;;;;;;;;14.57;71.64;99528.50;5328373;32;44676;-70
2022/11/04 16:25:17;;;;;;;;;;;;;;;13.91;75.18;99525.91;5301142;32;35360;-78
2022/11/04 16:28:19;;;;;;;;;;;;;;;14.58;71.64;99530.16;5307107;32;34844;-77
2022/11/04 16:31:26;;;;;;;;;;;;;;;14.22;73.09;99530.84;5300921;32;34712;-76
2022/11/04 16:34:28;;;;;;;;;;;;;;;13.41;76.86;99535.37;5310987;32;35642;-77
2022/11/04 16:37:31;;;;;;;;;;;;;;;13.32;78.04;99518.31;5322959;32;34252;-68
2022/11/04 16:40:33;;;;;;;;;;;;;;;13.17;78.46;99524.56;5307980;32;35202;-67